createdAt,value
2022-09-24T00:01:37.626Z,5.95
2022-09-24T00:04:09.975Z,3.85
2022-09-24T00:06:47.297Z,3.92
2022-09-24T00:09:18.415Z,2.33
2022-09-24T00:11:46.636Z,3.40
2022-09-24T00:14:14.947Z,4.15
2022-09-24T00:16:44.763Z,5.65
2022-09-24T00:19:14.815Z,4.53
2022-09-24T00:21:44.403Z,4.85
2022-09-24T00:24:17.793Z,3.67
2022-09-24T00:26:46.131Z,4.80
2022-09-24T00:29:22.904Z,5.47
2022-09-24T00:31:52.469Z,7.18
2022-09-24T00:34:21.372Z,5.68
2022-09-24T00:36:49.807Z,7.07
2022-09-24T00:39:18.029Z,15.13
2022-09-24T00:41:46.616Z,7.03
2022-09-24T00:44:45.677Z,5.35
2022-09-24T00:47:22.993Z,4.18
2022-09-24T00:49:51.908Z,5.07
2022-09-24T00:52:20.527Z,5.30
2022-09-24T00:54:49.526Z,6.80
2022-09-24T00:57:18.188Z,6.50
2022-09-24T00:59:46.623Z,5.15
2022-09-24T01:02:15.028Z,4.50
2022-09-24T01:04:43.351Z,4.70
2022-09-24T01:07:11.617Z,5.00
2022-09-24T01:09:39.919Z,5.20
2022-09-24T01:12:38.322Z,5.65
2022-09-24T01:15:17.267Z,4.88
2022-09-24T01:18:13.731Z,4.75
2022-09-24T01:20:44.989Z,5.10
2022-09-24T01:23:46.268Z,4.77
2022-09-24T01:26:45.900Z,4.78
2022-09-24T01:29:32.864Z,5.95
2022-09-24T01:32:13.401Z,5.38
2022-09-24T01:34:46.598Z,4.93
2022-09-24T01:37:18.429Z,6.45
2022-09-24T01:39:48.707Z,6.82
2022-09-24T01:42:18.419Z,6.43
2022-09-24T01:44:48.099Z,6.72
2022-09-24T01:47:36.752Z,6.25
2022-09-24T01:50:05.285Z,6.18
2022-09-24T01:52:41.597Z,5.28
2022-09-24T01:55:14.258Z,5.70
2022-09-24T01:57:50.038Z,5.53
2022-09-24T02:00:22.972Z,4.75
2022-09-24T02:03:15.228Z,5.25
2022-09-24T02:06:03.411Z,5.70
2022-09-24T02:08:37.834Z,6.45
2022-09-24T02:11:12.309Z,7.38
2022-09-24T02:13:50.265Z,6.22
2022-09-24T02:16:24.180Z,7.65
2022-09-24T02:18:56.986Z,13.88
2022-09-24T02:21:26.475Z,5.72
2022-09-24T02:24:20.413Z,4.07
2022-09-24T02:26:48.883Z,4.55
2022-09-24T02:29:17.744Z,4.13
2022-09-24T02:31:50.275Z,4.70
2022-09-24T02:34:24.209Z,5.03
2022-09-24T02:37:11.683Z,4.40
2022-09-24T02:39:40.019Z,3.05
2022-09-24T02:42:10.049Z,2.63
2022-09-24T02:44:38.237Z,3.15
2022-09-24T02:47:07.670Z,3.80
2022-09-24T02:49:36.486Z,4.63
2022-09-24T02:52:04.770Z,5.55
2022-09-24T02:54:33.030Z,4.90
2022-09-24T02:57:01.247Z,4.85
2022-09-24T02:59:29.373Z,5.53
2022-09-24T03:01:57.745Z,4.75
2022-09-24T03:04:26.158Z,4.45
2022-09-24T03:06:54.253Z,4.43
2022-09-24T03:09:22.410Z,4.70
2022-09-24T03:11:50.703Z,4.20
2022-09-24T03:14:18.980Z,4.30
2022-09-24T03:16:47.190Z,4.47
2022-09-24T03:19:15.250Z,4.40
2022-09-24T03:21:43.401Z,4.90
2022-09-24T03:24:11.737Z,4.50
2022-09-24T03:26:40.002Z,5.47
2022-09-24T03:29:09.565Z,4.70
2022-09-24T03:31:37.954Z,4.90
2022-09-24T03:34:06.309Z,5.57
2022-09-24T03:36:34.489Z,7.43
2022-09-24T03:39:02.871Z,8.75
2022-09-24T03:41:31.058Z,7.43
2022-09-24T03:43:59.229Z,5.78
2022-09-24T03:46:27.475Z,4.78
2022-09-24T03:48:55.815Z,4.18
2022-09-24T03:51:24.132Z,2.88
2022-09-24T03:53:52.356Z,2.33
2022-09-24T03:56:20.683Z,3.35
2022-09-24T03:58:48.919Z,4.95
2022-09-24T04:01:17.776Z,5.75
2022-09-24T04:03:45.981Z,7.18
2022-09-24T04:06:14.188Z,5.93
2022-09-24T04:08:42.338Z,4.32
2022-09-24T04:11:10.465Z,4.55
2022-09-24T04:13:38.780Z,4.97
2022-09-24T04:16:07.153Z,6.72
2022-09-24T04:18:39.065Z,6.35
2022-09-24T04:21:08.019Z,6.13
2022-09-24T04:23:36.236Z,6.75
2022-09-24T04:26:04.507Z,5.47
2022-09-24T04:28:32.922Z,5.13
2022-09-24T04:31:01.099Z,3.83
2022-09-24T04:33:29.350Z,3.90
2022-09-24T04:35:57.435Z,3.15
2022-09-24T04:38:25.855Z,3.83
2022-09-24T04:40:54.126Z,3.80
2022-09-24T04:43:22.470Z,3.83
2022-09-24T04:45:50.652Z,4.50
2022-09-24T04:48:18.942Z,3.90
2022-09-24T04:50:47.628Z,4.40
2022-09-24T04:53:15.796Z,3.80
2022-09-24T04:55:44.266Z,4.18
2022-09-24T04:58:12.445Z,4.05
2022-09-24T05:00:40.693Z,3.90
2022-09-24T05:03:10.203Z,3.50
2022-09-24T05:05:38.479Z,4.32
2022-09-24T05:08:06.538Z,4.38
2022-09-24T05:10:34.837Z,4.50
2022-09-24T05:13:02.895Z,4.68
2022-09-24T05:15:31.550Z,5.00
2022-09-24T05:17:59.842Z,5.30
2022-09-24T05:20:28.245Z,5.50
2022-09-24T05:22:56.490Z,4.30
2022-09-24T05:25:24.661Z,5.30
2022-09-24T05:27:54.803Z,4.82
2022-09-24T05:30:25.344Z,4.93
2022-09-24T05:32:53.571Z,5.50
2022-09-24T05:35:23.628Z,5.03
2022-09-24T05:37:52.112Z,5.95
2022-09-24T05:40:20.251Z,5.10
2022-09-24T05:42:48.542Z,4.85
2022-09-24T05:45:17.097Z,4.85
2022-09-24T05:47:48.256Z,6.18
2022-09-24T05:50:16.617Z,5.97
2022-09-24T05:52:44.797Z,6.10
2022-09-24T05:55:13.103Z,5.28
2022-09-24T05:57:41.197Z,5.88
2022-09-24T06:00:09.774Z,4.93
2022-09-24T06:02:40.771Z,6.75
2022-09-24T06:05:09.527Z,8.32
2022-09-24T06:07:37.747Z,11.75
2022-09-24T06:10:06.751Z,9.13
2022-09-24T06:12:34.937Z,8.27
2022-09-24T06:15:03.534Z,7.28
2022-09-24T06:17:31.764Z,6.80
2022-09-24T06:19:59.851Z,6.82
2022-09-24T06:22:29.178Z,7.32
2022-09-24T06:24:57.495Z,7.90
2022-09-24T06:27:25.520Z,7.68
2022-09-24T06:29:53.800Z,6.88
2022-09-24T06:32:24.734Z,7.85
2022-09-24T06:34:56.914Z,8.05
2022-09-24T06:37:27.465Z,8.63
2022-09-24T06:39:55.567Z,10.40
2022-09-24T06:42:23.894Z,9.38
2022-09-24T06:44:52.319Z,9.82
2022-09-24T06:47:20.503Z,8.07
2022-09-24T06:49:48.663Z,6.18
2022-09-24T06:52:17.165Z,7.60
2022-09-24T06:54:45.373Z,6.78
2022-09-24T06:57:13.679Z,5.95
2022-09-24T06:59:41.941Z,5.53
2022-09-24T07:02:10.890Z,6.85
2022-09-24T07:04:39.053Z,7.93
2022-09-24T07:07:07.349Z,7.00
2022-09-24T07:09:35.704Z,3.90
2022-09-24T07:12:03.972Z,2.97
2022-09-24T07:14:32.202Z,3.05
2022-09-24T07:17:00.573Z,2.00
2022-09-24T07:19:28.806Z,1.63
2022-09-24T07:21:57.157Z,1.45
2022-09-24T07:24:25.259Z,1.10
2022-09-24T07:26:53.419Z,1.40
2022-09-24T07:29:21.824Z,0.80
2022-09-24T07:31:50.075Z,0.85
2022-09-24T07:34:18.339Z,1.20
2022-09-24T07:36:46.624Z,2.25
2022-09-24T07:39:14.775Z,1.63
2022-09-24T07:41:43.095Z,3.83
2022-09-24T07:44:11.448Z,2.70
2022-09-24T07:46:39.577Z,1.42
2022-09-24T07:49:07.906Z,1.60
2022-09-24T07:51:36.184Z,1.27
2022-09-24T07:54:04.575Z,1.60
2022-09-24T07:56:32.988Z,2.08
2022-09-24T07:59:01.148Z,2.60
2022-09-24T08:01:29.565Z,2.85
2022-09-24T08:03:58.541Z,2.22
2022-09-24T08:06:26.871Z,2.83
2022-09-24T08:08:55.197Z,2.55
2022-09-24T08:11:23.451Z,3.72
2022-09-24T08:13:51.764Z,4.95
2022-09-24T08:16:20.193Z,6.07
2022-09-24T08:18:48.588Z,4.30
2022-09-24T08:21:17.055Z,5.18
2022-09-24T08:23:45.208Z,6.88
2022-09-24T08:26:14.370Z,5.60
2022-09-24T08:28:43.060Z,5.50
2022-09-24T08:31:15.028Z,4.60
2022-09-24T08:33:43.273Z,4.00
2022-09-24T08:36:11.538Z,2.70
2022-09-24T08:38:39.903Z,2.40
2022-09-24T08:41:35.638Z,2.60
2022-09-24T08:44:12.673Z,2.72
2022-09-24T08:46:53.700Z,3.08
2022-09-24T08:49:37.993Z,4.10
2022-09-24T08:52:40.300Z,4.30
2022-09-24T08:55:14.939Z,4.20
2022-09-24T08:57:50.907Z,4.40
2022-09-24T09:00:19.240Z,3.63
2022-09-24T09:03:05.374Z,3.30
2022-09-24T09:05:55.588Z,2.80
2022-09-24T09:09:06.340Z,2.17
2022-09-24T09:11:37.948Z,2.80
2022-09-24T09:14:12.025Z,2.60
2022-09-24T09:16:45.973Z,2.47
2022-09-24T09:19:16.903Z,2.88
2022-09-24T09:21:53.373Z,2.67
2022-09-24T09:24:27.569Z,2.30
2022-09-24T09:26:57.241Z,2.80
2022-09-24T09:29:27.283Z,3.05
2022-09-24T09:32:12.685Z,2.33
2022-09-24T09:35:21.617Z,3.38
2022-09-24T09:38:01.366Z,4.50
2022-09-24T09:40:38.936Z,2.50
2022-09-24T09:43:15.417Z,2.67
2022-09-24T09:46:02.004Z,2.90
2022-09-24T09:48:47.127Z,2.10
2022-09-24T09:51:22.240Z,2.10
2022-09-24T09:53:58.728Z,1.85
2022-09-24T09:56:30.287Z,2.28
2022-09-24T09:59:29.911Z,3.05
2022-09-24T10:01:58.505Z,2.60
2022-09-24T10:04:35.680Z,2.03
2022-09-24T10:07:12.326Z,2.40
2022-09-24T10:09:42.266Z,2.83
2022-09-24T10:12:16.660Z,2.80
2022-09-24T10:14:45.901Z,2.47
2022-09-24T10:17:18.802Z,2.78
2022-09-24T10:19:47.791Z,3.50
2022-09-24T10:22:26.279Z,2.85
2022-09-24T10:24:57.628Z,7.45
2022-09-24T10:27:36.008Z,4.97
2022-09-24T10:30:14.742Z,5.90
2022-09-24T10:32:43.176Z,3.90
2022-09-24T10:35:31.291Z,2.58
2022-09-24T10:38:01.095Z,3.00
2022-09-24T10:40:40.555Z,3.72
2022-09-24T10:43:16.149Z,3.70
2022-09-24T10:46:23.064Z,3.42
2022-09-24T10:48:55.239Z,2.58
2022-09-24T10:51:51.341Z,2.50
2022-09-24T10:54:44.605Z,2.20
2022-09-24T10:57:37.182Z,2.67
2022-09-24T11:03:25.346Z,3.20
2022-09-24T11:05:57.507Z,3.75
2022-09-24T11:11:40.180Z,4.38
2022-09-24T11:14:11.284Z,6.80
2022-09-24T11:17:01.675Z,7.30
2022-09-24T11:19:47.119Z,6.22
2022-09-24T11:22:17.233Z,6.00
2022-09-24T11:25:02.080Z,5.80
2022-09-24T11:27:55.771Z,4.63
2022-09-24T11:30:28.587Z,4.13
2022-09-24T11:33:18.269Z,4.32
2022-09-24T11:36:13.847Z,3.38
2022-09-24T11:38:51.237Z,3.00
2022-09-24T11:41:44.211Z,3.90
2022-09-24T11:44:36.609Z,6.20
2022-09-24T11:47:29.588Z,7.28
2022-09-24T11:50:21.384Z,5.80
2022-09-24T11:52:57.337Z,5.22
2022-09-24T11:55:35.538Z,6.32
2022-09-24T11:58:09.924Z,5.53
2022-09-24T12:01:27.600Z,4.80
2022-09-24T12:04:14.305Z,5.65
2022-09-24T12:06:51.417Z,4.90
2022-09-24T12:09:49.658Z,3.75
2022-09-24T12:12:21.597Z,4.30
2022-09-24T12:15:12.794Z,4.95
2022-09-24T12:17:55.322Z,5.20
2022-09-24T12:20:46.633Z,4.75
2022-09-24T12:23:18.195Z,6.18
2022-09-24T12:25:49.016Z,4.93
2022-09-24T12:28:21.135Z,5.15
2022-09-24T12:33:45.807Z,11.07
2022-09-24T12:36:24.975Z,3.28
2022-09-24T12:39:03.179Z,4.30
2022-09-24T12:41:47.811Z,3.85
2022-09-24T12:44:29.767Z,4.30
2022-09-24T12:46:59.805Z,5.47
2022-09-24T12:49:28.046Z,2.90
2022-09-24T12:52:17.730Z,3.65
2022-09-24T12:54:46.493Z,4.07
2022-09-24T12:57:26.840Z,4.68
2022-09-24T12:59:59.275Z,6.55
2022-09-24T13:05:53.251Z,4.60
2022-09-24T13:08:21.544Z,2.75
2022-09-24T13:10:58.910Z,2.55
2022-09-24T13:13:29.887Z,2.83
2022-09-24T13:16:06.216Z,2.90
2022-09-24T13:18:37.971Z,6.50
2022-09-24T13:21:08.603Z,6.20
2022-09-24T13:23:36.866Z,5.97
2022-09-24T13:26:10.047Z,6.53
2022-09-24T13:28:53.637Z,4.05
2022-09-24T13:31:54.234Z,3.22
2022-09-24T13:34:30.750Z,3.45
2022-09-24T13:37:04.953Z,4.53
2022-09-24T13:39:45.335Z,3.67
2022-09-24T13:42:32.717Z,5.82
2022-09-24T13:45:09.688Z,3.85
2022-09-24T13:47:48.385Z,4.40
2022-09-24T13:50:28.104Z,5.43
2022-09-24T13:53:05.692Z,3.65
2022-09-24T13:55:47.848Z,3.92
2022-09-24T13:58:36.801Z,4.88
2022-09-24T14:01:28.184Z,5.03
2022-09-24T14:03:59.845Z,6.70
2022-09-24T14:06:42.035Z,5.40
2022-09-24T14:09:36.301Z,4.88
2022-09-24T14:12:18.357Z,4.28
2022-09-24T14:14:51.390Z,5.13
2022-09-24T14:17:19.943Z,6.25
2022-09-24T14:19:49.637Z,3.95
2022-09-24T14:22:24.720Z,4.82
2022-09-24T14:25:09.421Z,5.70
2022-09-24T14:27:47.239Z,4.47
2022-09-24T14:30:23.686Z,5.50
2022-09-24T14:33:05.588Z,3.65
2022-09-24T14:35:39.486Z,5.28
2022-09-24T14:38:29.806Z,6.88
2022-09-24T14:41:07.816Z,10.07
2022-09-24T14:43:46.879Z,7.97
2022-09-24T14:46:24.257Z,7.70
2022-09-24T14:48:52.759Z,4.68
2022-09-24T14:51:31.471Z,5.50
2022-09-24T14:54:19.017Z,4.25
2022-09-24T14:56:47.233Z,3.53
2022-09-24T14:59:17.064Z,4.82
2022-09-24T15:01:45.485Z,5.10
2022-09-24T15:04:27.767Z,9.48
2022-09-24T15:06:56.297Z,6.35
2022-09-24T15:09:30.483Z,8.50
2022-09-24T15:12:19.555Z,8.45
2022-09-24T15:14:59.191Z,6.25
2022-09-24T15:17:35.877Z,7.90
2022-09-24T15:20:05.315Z,11.23
2022-09-24T15:22:33.666Z,5.47
2022-09-24T15:25:02.623Z,7.72
2022-09-24T15:27:37.873Z,5.85
2022-09-24T15:30:07.886Z,5.10
2022-09-24T15:32:36.300Z,6.65
2022-09-24T15:35:06.201Z,6.20
2022-09-24T15:37:34.541Z,5.78
2022-09-24T15:40:23.029Z,5.40
2022-09-24T15:42:52.139Z,5.40
2022-09-24T15:45:22.295Z,8.00
2022-09-24T15:47:51.872Z,5.78
2022-09-24T15:50:24.457Z,4.38
2022-09-24T15:53:02.621Z,4.57
2022-09-24T15:55:30.988Z,4.60
2022-09-24T15:57:59.197Z,4.55
2022-09-24T16:00:27.469Z,4.55
2022-09-24T16:02:58.076Z,4.40
2022-09-24T16:05:26.830Z,4.00
2022-09-24T16:07:55.291Z,4.57
2022-09-24T16:10:23.544Z,4.32
2022-09-24T16:12:51.967Z,3.45
2022-09-24T16:15:20.478Z,3.20
2022-09-24T16:17:49.272Z,3.00
2022-09-24T16:20:17.752Z,3.60
2022-09-24T16:22:46.010Z,4.30
2022-09-24T16:25:14.286Z,4.90
2022-09-24T16:27:42.633Z,4.65
2022-09-24T16:30:11.174Z,4.60
2022-09-24T16:32:39.382Z,4.28
2022-09-24T16:35:08.116Z,4.18
2022-09-24T16:37:36.453Z,4.60
2022-09-24T16:40:05.287Z,6.60
2022-09-24T16:42:35.251Z,5.60
2022-09-24T16:45:03.690Z,3.72
2022-09-24T16:47:31.792Z,4.88
2022-09-24T16:50:00.071Z,3.85
2022-09-24T16:52:31.331Z,4.25
2022-09-24T16:54:59.716Z,4.00
2022-09-24T16:57:27.982Z,4.45
2022-09-24T16:59:56.217Z,3.45
2022-09-24T17:02:24.660Z,3.15
2022-09-24T17:04:52.795Z,5.93
2022-09-24T17:07:21.033Z,4.88
2022-09-24T17:09:49.360Z,4.60
2022-09-24T17:12:17.808Z,4.00
2022-09-24T17:14:45.983Z,5.05
2022-09-24T17:17:14.500Z,4.65
2022-09-24T17:19:42.772Z,4.85
2022-09-24T17:22:11.035Z,4.95
2022-09-24T17:24:39.277Z,5.50
2022-09-24T17:27:08.603Z,7.13
2022-09-24T17:29:37.013Z,4.43
2022-09-24T17:32:05.195Z,4.53
2022-09-24T17:34:33.410Z,4.45
2022-09-24T17:37:01.663Z,4.38
2022-09-24T17:39:29.905Z,4.00
2022-09-24T17:41:58.507Z,4.00
2022-09-24T17:44:26.589Z,3.95
2022-09-24T17:46:54.937Z,4.72
2022-09-24T17:49:23.282Z,6.75
2022-09-24T17:51:51.507Z,3.85
2022-09-24T17:54:19.780Z,4.90
2022-09-24T17:56:48.191Z,4.93
2022-09-24T17:59:16.911Z,3.85
2022-09-24T18:01:46.302Z,5.20
2022-09-24T18:04:17.531Z,5.50
2022-09-24T18:06:47.461Z,6.00
2022-09-24T18:09:16.928Z,5.32
2022-09-24T18:11:49.973Z,4.20
2022-09-24T18:14:20.836Z,7.43
2022-09-24T18:16:49.818Z,8.27
2022-09-24T18:19:18.755Z,4.78
2022-09-24T18:21:47.590Z,4.50
2022-09-24T18:24:15.793Z,6.45
2022-09-24T18:26:44.017Z,5.88
2022-09-24T18:29:17.132Z,5.93
2022-09-24T18:31:45.625Z,8.40
2022-09-24T18:34:15.388Z,2.95
2022-09-24T18:36:44.956Z,2.50
2022-09-24T18:39:18.719Z,2.67
2022-09-24T18:41:50.391Z,2.25
2022-09-24T18:44:18.706Z,3.20
2022-09-24T18:46:46.927Z,4.45
2022-09-24T18:49:15.175Z,5.70
2022-09-24T18:51:43.610Z,5.07
2022-09-24T18:54:14.077Z,6.57
2022-09-24T18:56:42.575Z,7.80
2022-09-24T18:59:21.020Z,8.18
2022-09-24T19:01:50.104Z,4.22
2022-09-24T19:04:19.147Z,4.60
2022-09-24T19:06:48.359Z,7.25
2022-09-24T19:09:17.610Z,4.55
2022-09-24T19:11:47.195Z,3.50
2022-09-24T19:14:16.555Z,3.05
2022-09-24T19:16:45.526Z,3.10
2022-09-24T19:19:14.049Z,2.88
2022-09-24T19:21:42.251Z,3.58
2022-09-24T19:24:10.631Z,3.33
2022-09-24T19:26:39.290Z,3.20
2022-09-24T19:29:07.625Z,4.82
2022-09-24T19:31:38.561Z,4.13
2022-09-24T19:34:09.339Z,3.78
2022-09-24T19:36:42.596Z,4.53
2022-09-24T19:39:18.228Z,4.57
2022-09-24T19:41:46.857Z,5.95
2022-09-24T19:44:15.264Z,5.50
2022-09-24T19:46:43.859Z,6.15
2022-09-24T19:49:12.121Z,2.75
2022-09-24T19:51:40.507Z,2.35
2022-09-24T19:54:09.282Z,2.25
2022-09-24T19:56:38.031Z,2.80
2022-09-24T19:59:06.923Z,3.67
2022-09-24T20:01:35.775Z,3.15
2022-09-24T20:04:06.954Z,4.03
2022-09-24T20:06:37.210Z,3.73
2022-09-24T20:09:06.428Z,5.03
2022-09-24T20:11:35.558Z,5.10
2022-09-24T20:14:04.144Z,5.32
2022-09-24T20:16:32.301Z,4.90
2022-09-24T20:19:01.418Z,4.70
2022-09-24T20:21:32.533Z,5.25
2022-09-24T20:24:01.175Z,5.28
2022-09-24T20:26:29.532Z,5.28
2022-09-24T20:28:58.273Z,7.40
2022-09-24T20:31:27.267Z,6.72
2022-09-24T20:33:55.523Z,5.82
2022-09-24T20:36:25.038Z,5.10
2022-09-24T20:38:54.012Z,5.30
2022-09-24T20:41:24.986Z,4.10
2022-09-24T20:43:54.215Z,3.80
2022-09-24T20:46:25.638Z,5.45
2022-09-24T20:48:55.228Z,5.05
2022-09-24T20:51:23.366Z,4.65
2022-09-24T20:53:51.561Z,4.88
2022-09-24T20:56:22.310Z,4.00
2022-09-24T20:58:52.298Z,3.60
2022-09-24T21:01:21.804Z,3.00
2022-09-24T21:03:50.317Z,4.22
2022-09-24T21:06:19.909Z,4.65
2022-09-24T21:08:48.310Z,6.53
2022-09-24T21:11:19.248Z,7.75
2022-09-24T21:13:52.962Z,5.22
2022-09-24T21:16:24.821Z,5.07
2022-09-24T21:18:53.960Z,4.40
2022-09-24T21:21:31.011Z,4.60
2022-09-24T21:24:00.908Z,5.53
2022-09-24T21:26:31.643Z,6.30
2022-09-24T21:29:05.999Z,4.78
2022-09-24T21:31:35.599Z,3.95
2022-09-24T21:34:05.169Z,3.45
2022-09-24T21:36:42.922Z,4.25
2022-09-24T21:39:18.682Z,18.10
2022-09-24T21:41:48.619Z,18.90
2022-09-24T21:44:17.463Z,14.13
2022-09-24T21:46:45.958Z,9.75
2022-09-24T21:49:14.682Z,20.92
2022-09-24T21:51:42.723Z,25.75
2022-09-24T21:54:14.581Z,17.17
2022-09-24T21:56:43.201Z,9.25
2022-09-24T21:59:11.791Z,11.07
2022-09-24T22:01:40.043Z,19.48
2022-09-24T22:04:09.170Z,17.67
2022-09-24T22:06:37.493Z,11.98
2022-09-24T22:09:07.366Z,7.20
2022-09-24T22:11:36.594Z,6.20
2022-09-24T22:14:05.249Z,6.47
2022-09-24T22:16:36.613Z,6.30
2022-09-24T22:19:06.639Z,5.18
2022-09-24T22:21:35.336Z,3.78
2022-09-24T22:24:03.743Z,3.60
2022-09-24T22:26:32.139Z,4.32
2022-09-24T22:29:02.456Z,3.13
2022-09-24T22:31:30.952Z,3.22
2022-09-24T22:33:59.037Z,3.92
2022-09-24T22:36:32.332Z,11.45
2022-09-24T22:39:01.485Z,19.02
2022-09-24T22:41:30.904Z,66.05
2022-09-24T22:43:59.493Z,69.85
2022-09-24T22:46:28.077Z,33.92
2022-09-24T22:48:57.215Z,15.93
2022-09-24T22:51:26.568Z,10.50
2022-09-24T22:53:55.722Z,9.65
2022-09-24T22:56:27.785Z,7.00
2022-09-24T22:59:01.002Z,4.65
2022-09-24T23:01:32.567Z,4.28
2022-09-24T23:04:01.809Z,5.72
2022-09-24T23:06:30.726Z,4.68
2022-09-24T23:08:58.957Z,3.60
2022-09-24T23:11:30.189Z,2.72
2022-09-24T23:14:03.751Z,2.45
2022-09-24T23:16:37.644Z,4.15
2022-09-24T23:19:08.707Z,6.00
2022-09-24T23:21:37.014Z,3.15
2022-09-24T23:24:08.708Z,11.27
2022-09-24T23:26:36.910Z,12.50
2022-09-24T23:29:05.360Z,8.45
2022-09-24T23:31:35.828Z,3.45
2022-09-24T23:34:06.078Z,2.78
2022-09-24T23:36:34.527Z,3.78
2022-09-24T23:39:04.164Z,6.18
2022-09-24T23:41:32.477Z,7.03
2022-09-24T23:44:01.316Z,5.97
2022-09-24T23:46:30.023Z,6.88
2022-09-24T23:48:58.274Z,7.78
2022-09-24T23:51:26.495Z,5.53
2022-09-24T23:53:54.822Z,4.80
2022-09-24T23:56:22.891Z,6.88
2022-09-24T23:58:51.214Z,6.13
